sensor_id;sensor_type;location;lat;lon;timestamp;temperature;humidity
52267;DHT22;38223;50.940;4.034;2023-07-22T00:02:11;18.50;99.90
52267;DHT22;38223;50.940;4.034;2023-07-22T00:04:44;18.60;99.90
52267;DHT22;38223;50.940;4.034;2023-07-22T00:07:20;18.80;99.90
52267;DHT22;38223;50.940;4.034;2023-07-22T00:09:58;18.80;99.90
52267;DHT22;38223;50.940;4.034;2023-07-22T00:12:31;18.90;99.90
52267;DHT22;38223;50.940;4.034;2023-07-22T00:17:52;18.60;99.90
52267;DHT22;38223;50.940;4.034;2023-07-22T00:20:24;18.70;99.90
52267;DHT22;38223;50.940;4.034;2023-07-22T00:22:59;18.60;99.90
52267;DHT22;38223;50.940;4.034;2023-07-22T00:25:28;18.50;99.90
52267;DHT22;38223;50.940;4.034;2023-07-22T00:28:01;18.50;99.90
52267;DHT22;38223;50.940;4.034;2023-07-22T00:30:31;18.60;99.90
52267;DHT22;38223;50.940;4.034;2023-07-22T00:33:00;18.60;99.90
52267;DHT22;38223;50.940;4.034;2023-07-22T00:35:35;18.50;99.90
52267;DHT22;38223;50.940;4.034;2023-07-22T00:38:04;18.30;99.90
52267;DHT22;38223;50.940;4.034;2023-07-22T00:40:35;18.60;99.90
52267;DHT22;38223;50.940;4.034;2023-07-22T00:43:06;18.80;99.90
52267;DHT22;38223;50.940;4.034;2023-07-22T00:45:40;18.70;99.90
52267;DHT22;38223;50.940;4.034;2023-07-22T00:48:11;18.70;99.90
52267;DHT22;38223;50.940;4.034;2023-07-22T00:50:46;18.50;99.90
52267;DHT22;38223;50.940;4.034;2023-07-22T00:53:16;18.40;99.90
52267;DHT22;38223;50.940;4.034;2023-07-22T00:55:51;18.40;99.90
52267;DHT22;38223;50.940;4.034;2023-07-22T00:58:24;18.30;99.90
52267;DHT22;38223;50.940;4.034;2023-07-22T01:00:54;18.30;99.90
52267;DHT22;38223;50.940;4.034;2023-07-22T01:03:24;18.20;99.90
52267;DHT22;38223;50.940;4.034;2023-07-22T01:05:58;18.40;99.90
52267;DHT22;38223;50.940;4.034;2023-07-22T01:08:29;18.40;99.90
52267;DHT22;38223;50.940;4.034;2023-07-22T01:11:04;18.40;99.90
52267;DHT22;38223;50.940;4.034;2023-07-22T01:13:36;18.40;99.90
52267;DHT22;38223;50.940;4.034;2023-07-22T01:16:06;18.50;99.90
52267;DHT22;38223;50.940;4.034;2023-07-22T01:18:38;18.50;99.90
52267;DHT22;38223;50.940;4.034;2023-07-22T01:21:15;18.50;99.90
52267;DHT22;38223;50.940;4.034;2023-07-22T01:23:46;18.40;99.90
52267;DHT22;38223;50.940;4.034;2023-07-22T01:26:18;18.30;99.90
52267;DHT22;38223;50.940;4.034;2023-07-22T01:28:50;18.20;99.90
52267;DHT22;38223;50.940;4.034;2023-07-22T01:31:19;18.10;99.90
52267;DHT22;38223;50.940;4.034;2023-07-22T01:34:07;18.00;99.90
52267;DHT22;38223;50.940;4.034;2023-07-22T01:36:37;17.90;99.90
52267;DHT22;38223;50.940;4.034;2023-07-22T01:39:09;17.80;99.90
52267;DHT22;38223;50.940;4.034;2023-07-22T01:41:44;17.70;99.90
52267;DHT22;38223;50.940;4.034;2023-07-22T01:44:17;17.60;99.90
52267;DHT22;38223;50.940;4.034;2023-07-22T01:49:40;17.50;99.90
52267;DHT22;38223;50.940;4.034;2023-07-22T01:52:10;17.50;99.90
52267;DHT22;38223;50.940;4.034;2023-07-22T01:54:43;17.50;99.90
52267;DHT22;38223;50.940;4.034;2023-07-22T01:57:14;17.40;99.90
52267;DHT22;38223;50.940;4.034;2023-07-22T01:59:50;17.50;99.90
52267;DHT22;38223;50.940;4.034;2023-07-22T02:02:21;17.50;99.90
52267;DHT22;38223;50.940;4.034;2023-07-22T02:04:57;17.60;99.90
52267;DHT22;38223;50.940;4.034;2023-07-22T02:07:27;17.60;99.90
52267;DHT22;38223;50.940;4.034;2023-07-22T02:10:02;17.70;99.90
52267;DHT22;38223;50.940;4.034;2023-07-22T02:12:29;17.70;99.90
52267;DHT22;38223;50.940;4.034;2023-07-22T02:15:03;17.50;99.90
52267;DHT22;38223;50.940;4.034;2023-07-22T02:17:43;17.40;99.90
52267;DHT22;38223;50.940;4.034;2023-07-22T02:20:13;17.40;99.90
52267;DHT22;38223;50.940;4.034;2023-07-22T02:22:45;17.40;99.90
52267;DHT22;38223;50.940;4.034;2023-07-22T02:25:17;17.20;99.90
52267;DHT22;38223;50.940;4.034;2023-07-22T02:27:46;17.30;99.90
52267;DHT22;38223;50.940;4.034;2023-07-22T02:30:20;17.50;99.90
52267;DHT22;38223;50.940;4.034;2023-07-22T02:32:50;17.60;99.90
52267;DHT22;38223;50.940;4.034;2023-07-22T02:35:23;17.60;99.90
52267;DHT22;38223;50.940;4.034;2023-07-22T02:37:57;17.60;99.90
52267;DHT22;38223;50.940;4.034;2023-07-22T02:40:27;17.40;99.90
52267;DHT22;38223;50.940;4.034;2023-07-22T02:43:01;17.30;99.90
52267;DHT22;38223;50.940;4.034;2023-07-22T02:45:35;17.10;99.90
52267;DHT22;38223;50.940;4.034;2023-07-22T02:48:09;17.00;99.90
52267;DHT22;38223;50.940;4.034;2023-07-22T02:50:36;16.90;99.90
52267;DHT22;38223;50.940;4.034;2023-07-22T02:53:09;16.90;99.90
52267;DHT22;38223;50.940;4.034;2023-07-22T02:55:38;16.90;99.90
52267;DHT22;38223;50.940;4.034;2023-07-22T02:58:11;16.80;99.90
52267;DHT22;38223;50.940;4.034;2023-07-22T03:00:47;16.70;99.90
52267;DHT22;38223;50.940;4.034;2023-07-22T03:03:19;16.60;99.90
52267;DHT22;38223;50.940;4.034;2023-07-22T03:05:50;16.70;99.90
52267;DHT22;38223;50.940;4.034;2023-07-22T03:08:20;16.50;99.90
52267;DHT22;38223;50.940;4.034;2023-07-22T03:10:55;16.60;99.90
52267;DHT22;38223;50.940;4.034;2023-07-22T03:13:30;16.70;99.90
52267;DHT22;38223;50.940;4.034;2023-07-22T03:16:01;16.70;99.90
52267;DHT22;38223;50.940;4.034;2023-07-22T03:18:36;16.70;99.90
52267;DHT22;38223;50.940;4.034;2023-07-22T03:21:11;16.70;99.90
52267;DHT22;38223;50.940;4.034;2023-07-22T03:23:39;16.80;99.90
52267;DHT22;38223;50.940;4.034;2023-07-22T03:26:13;16.80;99.90
52267;DHT22;38223;50.940;4.034;2023-07-22T03:28:43;16.70;99.90
52267;DHT22;38223;50.940;4.034;2023-07-22T03:31:18;16.60;99.90
52267;DHT22;38223;50.940;4.034;2023-07-22T03:33:46;16.60;99.90
52267;DHT22;38223;50.940;4.034;2023-07-22T03:36:16;16.40;99.90
52267;DHT22;38223;50.940;4.034;2023-07-22T03:38:47;16.30;99.90
52267;DHT22;38223;50.940;4.034;2023-07-22T03:41:22;16.20;99.90
52267;DHT22;38223;50.940;4.034;2023-07-22T03:43:51;16.10;99.90
52267;DHT22;38223;50.940;4.034;2023-07-22T03:46:28;16.10;99.90
52267;DHT22;38223;50.940;4.034;2023-07-22T03:48:57;16.20;99.90
52267;DHT22;38223;50.940;4.034;2023-07-22T03:51:30;16.10;99.90
52267;DHT22;38223;50.940;4.034;2023-07-22T03:54:02;16.10;99.90
52267;DHT22;38223;50.940;4.034;2023-07-22T03:56:36;16.10;99.90
52267;DHT22;38223;50.940;4.034;2023-07-22T03:59:07;16.10;99.90
52267;DHT22;38223;50.940;4.034;2023-07-22T04:01:42;16.20;99.90
52267;DHT22;38223;50.940;4.034;2023-07-22T04:04:15;16.10;99.90
52267;DHT22;38223;50.940;4.034;2023-07-22T04:06:46;16.10;99.90
52267;DHT22;38223;50.940;4.034;2023-07-22T04:09:22;16.20;99.90
52267;DHT22;38223;50.940;4.034;2023-07-22T04:11:53;16.20;99.90
52267;DHT22;38223;50.940;4.034;2023-07-22T04:14:26;16.20;99.90
52267;DHT22;38223;50.940;4.034;2023-07-22T04:16:55;16.20;99.90
52267;DHT22;38223;50.940;4.034;2023-07-22T04:19:28;16.30;99.90
52267;DHT22;38223;50.940;4.034;2023-07-22T04:22:01;16.30;99.90
52267;DHT22;38223;50.940;4.034;2023-07-22T04:24:34;16.20;99.90
52267;DHT22;38223;50.940;4.034;2023-07-22T04:27:09;16.20;99.90
52267;DHT22;38223;50.940;4.034;2023-07-22T04:29:38;16.20;99.90
52267;DHT22;38223;50.940;4.034;2023-07-22T04:32:13;16.00;99.90
52267;DHT22;38223;50.940;4.034;2023-07-22T04:34:45;16.10;99.90
52267;DHT22;38223;50.940;4.034;2023-07-22T04:37:14;16.20;99.90
52267;DHT22;38223;50.940;4.034;2023-07-22T04:39:48;16.30;99.90
52267;DHT22;38223;50.940;4.034;2023-07-22T04:42:16;16.20;99.90
52267;DHT22;38223;50.940;4.034;2023-07-22T04:44:48;16.10;99.90
52267;DHT22;38223;50.940;4.034;2023-07-22T04:47:17;16.20;99.90
52267;DHT22;38223;50.940;4.034;2023-07-22T04:49:48;16.10;99.90
52267;DHT22;38223;50.940;4.034;2023-07-22T04:52:18;16.10;99.90
52267;DHT22;38223;50.940;4.034;2023-07-22T04:54:53;15.90;99.90
52267;DHT22;38223;50.940;4.034;2023-07-22T04:57:27;15.90;99.90
52267;DHT22;38223;50.940;4.034;2023-07-22T04:59:58;15.80;99.90
52267;DHT22;38223;50.940;4.034;2023-07-22T05:02:31;15.80;99.90
52267;DHT22;38223;50.940;4.034;2023-07-22T05:05:06;15.80;99.90
52267;DHT22;38223;50.940;4.034;2023-07-22T05:07:42;15.80;99.90
52267;DHT22;38223;50.940;4.034;2023-07-22T05:10:12;15.80;99.90
52267;DHT22;38223;50.940;4.034;2023-07-22T05:12:48;15.80;99.90
52267;DHT22;38223;50.940;4.034;2023-07-22T05:15:18;15.70;99.90
52267;DHT22;38223;50.940;4.034;2023-07-22T05:17:51;15.70;99.90
52267;DHT22;38223;50.940;4.034;2023-07-22T05:20:24;15.70;99.90
52267;DHT22;38223;50.940;4.034;2023-07-22T05:22:53;15.60;99.90
52267;DHT22;38223;50.940;4.034;2023-07-22T05:25:27;15.50;99.90
52267;DHT22;38223;50.940;4.034;2023-07-22T05:27:55;15.60;99.90
52267;DHT22;38223;50.940;4.034;2023-07-22T05:30:26;15.70;99.90
52267;DHT22;38223;50.940;4.034;2023-07-22T05:32:54;15.80;99.90
52267;DHT22;38223;50.940;4.034;2023-07-22T05:35:28;15.70;99.90
52267;DHT22;38223;50.940;4.034;2023-07-22T05:37:57;15.80;99.90
52267;DHT22;38223;50.940;4.034;2023-07-22T05:40:28;15.90;99.90
52267;DHT22;38223;50.940;4.034;2023-07-22T05:42:59;16.10;99.90
52267;DHT22;38223;50.940;4.034;2023-07-22T05:45:31;16.20;99.90
52267;DHT22;38223;50.940;4.034;2023-07-22T05:48:09;16.20;99.90
52267;DHT22;38223;50.940;4.034;2023-07-22T05:50:39;16.20;99.90
52267;DHT22;38223;50.940;4.034;2023-07-22T05:53:09;16.20;99.90
52267;DHT22;38223;50.940;4.034;2023-07-22T05:55:41;16.30;99.90
52267;DHT22;38223;50.940;4.034;2023-07-22T05:58:18;16.40;99.90
52267;DHT22;38223;50.940;4.034;2023-07-22T06:00:57;16.50;99.90
52267;DHT22;38223;50.940;4.034;2023-07-22T06:03:30;16.60;99.90
52267;DHT22;38223;50.940;4.034;2023-07-22T06:06:07;16.80;99.90
52267;DHT22;38223;50.940;4.034;2023-07-22T06:08:37;17.00;99.90
52267;DHT22;38223;50.940;4.034;2023-07-22T06:11:10;16.80;99.90
52267;DHT22;38223;50.940;4.034;2023-07-22T06:13:39;16.90;99.90
52267;DHT22;38223;50.940;4.034;2023-07-22T06:16:14;16.90;99.90
52267;DHT22;38223;50.940;4.034;2023-07-22T06:18:48;17.10;99.90
52267;DHT22;38223;50.940;4.034;2023-07-22T06:21:18;17.20;99.90
52267;DHT22;38223;50.940;4.034;2023-07-22T06:23:48;17.20;99.90
52267;DHT22;38223;50.940;4.034;2023-07-22T06:26:19;17.20;99.90
52267;DHT22;38223;50.940;4.034;2023-07-22T06:28:51;17.20;99.90
52267;DHT22;38223;50.940;4.034;2023-07-22T06:31:25;17.30;99.90
52267;DHT22;38223;50.940;4.034;2023-07-22T06:33:57;17.40;99.90
52267;DHT22;38223;50.940;4.034;2023-07-22T06:36:28;17.30;99.90
52267;DHT22;38223;50.940;4.034;2023-07-22T06:39:02;17.30;99.90
52267;DHT22;38223;50.940;4.034;2023-07-22T06:41:31;17.20;99.90
52267;DHT22;38223;50.940;4.034;2023-07-22T06:44:06;17.20;99.90
52267;DHT22;38223;50.940;4.034;2023-07-22T06:46:54;17.20;99.90
52267;DHT22;38223;50.940;4.034;2023-07-22T06:49:24;17.10;99.90
52267;DHT22;38223;50.940;4.034;2023-07-22T06:51:55;17.00;99.90
52267;DHT22;38223;50.940;4.034;2023-07-22T06:54:27;17.30;99.90
52267;DHT22;38223;50.940;4.034;2023-07-22T06:57:00;17.50;99.90
52267;DHT22;38223;50.940;4.034;2023-07-22T06:59:36;17.50;99.90
52267;DHT22;38223;50.940;4.034;2023-07-22T07:02:07;17.50;99.90
52267;DHT22;38223;50.940;4.034;2023-07-22T07:04:41;17.60;99.90
52267;DHT22;38223;50.940;4.034;2023-07-22T07:07:11;17.70;99.90
52267;DHT22;38223;50.940;4.034;2023-07-22T07:09:47;17.70;99.90
52267;DHT22;38223;50.940;4.034;2023-07-22T07:12:18;17.60;99.90
52267;DHT22;38223;50.940;4.034;2023-07-22T07:14:55;17.60;99.90
52267;DHT22;38223;50.940;4.034;2023-07-22T07:17:24;17.70;99.90
52267;DHT22;38223;50.940;4.034;2023-07-22T07:19:54;17.80;99.90
52267;DHT22;38223;50.940;4.034;2023-07-22T07:22:24;17.80;99.90
52267;DHT22;38223;50.940;4.034;2023-07-22T07:24:52;17.90;99.90
52267;DHT22;38223;50.940;4.034;2023-07-22T07:27:27;17.70;99.90
52267;DHT22;38223;50.940;4.034;2023-07-22T07:29:57;17.60;99.90
52267;DHT22;38223;50.940;4.034;2023-07-22T07:32:31;17.60;99.90
52267;DHT22;38223;50.940;4.034;2023-07-22T07:35:08;17.70;99.90
52267;DHT22;38223;50.940;4.034;2023-07-22T07:37:42;17.80;99.90
52267;DHT22;38223;50.940;4.034;2023-07-22T07:40:13;17.70;99.90
52267;DHT22;38223;50.940;4.034;2023-07-22T07:42:45;17.70;99.90
52267;DHT22;38223;50.940;4.034;2023-07-22T07:45:19;17.70;99.90
52267;DHT22;38223;50.940;4.034;2023-07-22T07:47:48;17.70;99.90
52267;DHT22;38223;50.940;4.034;2023-07-22T07:50:20;17.70;99.90
52267;DHT22;38223;50.940;4.034;2023-07-22T07:52:52;17.70;99.90
52267;DHT22;38223;50.940;4.034;2023-07-22T07:55:25;17.80;99.90
52267;DHT22;38223;50.940;4.034;2023-07-22T07:57:57;17.90;99.90
52267;DHT22;38223;50.940;4.034;2023-07-22T08:00:27;18.00;99.90
52267;DHT22;38223;50.940;4.034;2023-07-22T08:03:00;18.10;99.90
52267;DHT22;38223;50.940;4.034;2023-07-22T08:05:33;18.00;99.90
52267;DHT22;38223;50.940;4.034;2023-07-22T08:08:08;18.10;99.90
52267;DHT22;38223;50.940;4.034;2023-07-22T08:10:36;18.20;99.90
52267;DHT22;38223;50.940;4.034;2023-07-22T08:13:10;18.20;99.90
52267;DHT22;38223;50.940;4.034;2023-07-22T08:15:42;18.10;99.90
52267;DHT22;38223;50.940;4.034;2023-07-22T08:18:20;18.40;99.90
52267;DHT22;38223;50.940;4.034;2023-07-22T08:20:48;18.50;99.90
52267;DHT22;38223;50.940;4.034;2023-07-22T08:23:22;18.60;99.90
52267;DHT22;38223;50.940;4.034;2023-07-22T08:25:51;18.50;99.90
52267;DHT22;38223;50.940;4.034;2023-07-22T08:28:26;18.60;99.90
52267;DHT22;38223;50.940;4.034;2023-07-22T08:30:57;18.60;99.90
52267;DHT22;38223;50.940;4.034;2023-07-22T08:33:33;18.70;99.90
52267;DHT22;38223;50.940;4.034;2023-07-22T08:36:05;18.80;99.90
52267;DHT22;38223;50.940;4.034;2023-07-22T08:38:38;18.70;99.90
52267;DHT22;38223;50.940;4.034;2023-07-22T08:41:13;18.90;99.90
52267;DHT22;38223;50.940;4.034;2023-07-22T08:43:42;18.90;99.90
52267;DHT22;38223;50.940;4.034;2023-07-22T08:46:14;18.90;99.90
52267;DHT22;38223;50.940;4.034;2023-07-22T08:48:48;19.00;99.90
52267;DHT22;38223;50.940;4.034;2023-07-22T08:51:20;19.10;99.90
52267;DHT22;38223;50.940;4.034;2023-07-22T08:53:52;19.00;99.90
52267;DHT22;38223;50.940;4.034;2023-07-22T08:56:27;18.90;99.90
52267;DHT22;38223;50.940;4.034;2023-07-22T08:59:04;18.90;99.90
52267;DHT22;38223;50.940;4.034;2023-07-22T09:01:36;19.00;99.90
52267;DHT22;38223;50.940;4.034;2023-07-22T09:04:08;19.10;99.90
52267;DHT22;38223;50.940;4.034;2023-07-22T09:06:40;19.30;99.90
52267;DHT22;38223;50.940;4.034;2023-07-22T09:09:13;19.30;99.90
52267;DHT22;38223;50.940;4.034;2023-07-22T09:11:43;19.40;99.90
52267;DHT22;38223;50.940;4.034;2023-07-22T09:14:17;19.60;99.90
52267;DHT22;38223;50.940;4.034;2023-07-22T09:16:51;19.70;99.90
52267;DHT22;38223;50.940;4.034;2023-07-22T09:19:26;19.70;99.90
52267;DHT22;38223;50.940;4.034;2023-07-22T09:21:59;19.70;99.90
52267;DHT22;38223;50.940;4.034;2023-07-22T09:24:30;19.80;99.90
52267;DHT22;38223;50.940;4.034;2023-07-22T09:27:05;19.80;99.90
52267;DHT22;38223;50.940;4.034;2023-07-22T09:29:41;19.90;99.90
52267;DHT22;38223;50.940;4.034;2023-07-22T09:32:10;19.90;99.90
52267;DHT22;38223;50.940;4.034;2023-07-22T09:35:01;20.00;99.90
52267;DHT22;38223;50.940;4.034;2023-07-22T09:37:17;20.10;99.90
52267;DHT22;38223;50.940;4.034;2023-07-22T09:39:48;20.10;99.90
52267;DHT22;38223;50.940;4.034;2023-07-22T09:42:29;20.10;99.90
52267;DHT22;38223;50.940;4.034;2023-07-22T09:44:58;20.20;99.90
52267;DHT22;38223;50.940;4.034;2023-07-22T09:47:39;20.00;99.90
52267;DHT22;38223;50.940;4.034;2023-07-22T09:50:02;20.20;99.90
52267;DHT22;38223;50.940;4.034;2023-07-22T09:52:31;20.30;99.90
52267;DHT22;38223;50.940;4.034;2023-07-22T09:55:04;20.40;99.90
52267;DHT22;38223;50.940;4.034;2023-07-22T09:57:35;20.30;99.90
52267;DHT22;38223;50.940;4.034;2023-07-22T10:00:09;20.30;99.90
52267;DHT22;38223;50.940;4.034;2023-07-22T10:02:45;20.40;99.90
52267;DHT22;38223;50.940;4.034;2023-07-22T10:05:18;20.50;99.90
52267;DHT22;38223;50.940;4.034;2023-07-22T10:07:52;20.80;99.90
52267;DHT22;38223;50.940;4.034;2023-07-22T10:10:32;20.90;99.90
52267;DHT22;38223;50.940;4.034;2023-07-22T10:13:02;21.10;99.90
52267;DHT22;38223;50.940;4.034;2023-07-22T10:15:34;21.30;99.90
52267;DHT22;38223;50.940;4.034;2023-07-22T10:18:06;21.40;99.90
52267;DHT22;38223;50.940;4.034;2023-07-22T10:20:42;21.60;99.90
52267;DHT22;38223;50.940;4.034;2023-07-22T10:23:14;21.70;99.90
52267;DHT22;38223;50.940;4.034;2023-07-22T10:25:47;21.70;99.90
52267;DHT22;38223;50.940;4.034;2023-07-22T10:28:21;21.80;99.90
52267;DHT22;38223;50.940;4.034;2023-07-22T10:30:51;21.90;99.90
52267;DHT22;38223;50.940;4.034;2023-07-22T10:33:27;21.70;99.90
52267;DHT22;38223;50.940;4.034;2023-07-22T10:38:38;21.70;99.90
52267;DHT22;38223;50.940;4.034;2023-07-22T10:41:16;21.60;99.90
52267;DHT22;38223;50.940;4.034;2023-07-22T10:43:56;21.50;99.90
52267;DHT22;38223;50.940;4.034;2023-07-22T10:46:20;21.70;99.90
52267;DHT22;38223;50.940;4.034;2023-07-22T10:48:51;21.70;99.90
52267;DHT22;38223;50.940;4.034;2023-07-22T10:51:22;21.70;99.90
52267;DHT22;38223;50.940;4.034;2023-07-22T10:53:57;21.70;99.90
52267;DHT22;38223;50.940;4.034;2023-07-22T10:56:29;21.90;99.90
52267;DHT22;38223;50.940;4.034;2023-07-22T10:59:06;22.00;99.90
52267;DHT22;38223;50.940;4.034;2023-07-22T11:01:38;22.00;99.90
52267;DHT22;38223;50.940;4.034;2023-07-22T11:06:52;21.90;99.90
52267;DHT22;38223;50.940;4.034;2023-07-22T11:14:54;22.10;99.90
52267;DHT22;38223;50.940;4.034;2023-07-22T11:17:31;22.20;99.90
52267;DHT22;38223;50.940;4.034;2023-07-22T11:20:04;22.30;99.90
52267;DHT22;38223;50.940;4.034;2023-07-22T11:22:33;22.20;99.90
52267;DHT22;38223;50.940;4.034;2023-07-22T11:25:05;22.30;99.90
52267;DHT22;38223;50.940;4.034;2023-07-22T11:27:39;22.30;99.90
52267;DHT22;38223;50.940;4.034;2023-07-22T11:30:10;22.40;99.90
52267;DHT22;38223;50.940;4.034;2023-07-22T11:32:46;22.40;99.90
52267;DHT22;38223;50.940;4.034;2023-07-22T11:35:16;22.40;99.90
52267;DHT22;38223;50.940;4.034;2023-07-22T11:37:46;22.60;99.90
52267;DHT22;38223;50.940;4.034;2023-07-22T11:40:19;22.70;99.90
52267;DHT22;38223;50.940;4.034;2023-07-22T11:42:52;22.70;99.90
52267;DHT22;38223;50.940;4.034;2023-07-22T11:45:27;22.80;99.10
52267;DHT22;38223;50.940;4.034;2023-07-22T11:48:00;22.80;99.30
52267;DHT22;38223;50.940;4.034;2023-07-22T11:50:33;22.60;99.70
52267;DHT22;38223;50.940;4.034;2023-07-22T11:53:05;22.60;99.20
52267;DHT22;38223;50.940;4.034;2023-07-22T11:55:35;22.70;98.20
52267;DHT22;38223;50.940;4.034;2023-07-22T11:58:05;22.70;98.50
52267;DHT22;38223;50.940;4.034;2023-07-22T12:00:40;22.80;98.60
52267;DHT22;38223;50.940;4.034;2023-07-22T12:03:13;22.80;98.20
52267;DHT22;38223;50.940;4.034;2023-07-22T12:05:45;22.90;98.60
52267;DHT22;38223;50.940;4.034;2023-07-22T12:08:18;23.00;98.00
52267;DHT22;38223;50.940;4.034;2023-07-22T12:10:59;23.00;98.10
52267;DHT22;38223;50.940;4.034;2023-07-22T12:13:35;23.00;97.70
52267;DHT22;38223;50.940;4.034;2023-07-22T12:16:06;22.90;97.90
52267;DHT22;38223;50.940;4.034;2023-07-22T12:18:45;22.90;97.70
52267;DHT22;38223;50.940;4.034;2023-07-22T12:21:22;23.00;97.70
52267;DHT22;38223;50.940;4.034;2023-07-22T12:23:52;23.00;97.70
52267;DHT22;38223;50.940;4.034;2023-07-22T12:26:25;22.90;97.70
52267;DHT22;38223;50.940;4.034;2023-07-22T12:29:01;22.70;97.80
52267;DHT22;38223;50.940;4.034;2023-07-22T12:31:37;22.60;98.20
52267;DHT22;38223;50.940;4.034;2023-07-22T12:34:11;22.40;98.40
52267;DHT22;38223;50.940;4.034;2023-07-22T12:36:41;22.40;98.90
52267;DHT22;38223;50.940;4.034;2023-07-22T12:39:14;22.40;98.50
52267;DHT22;38223;50.940;4.034;2023-07-22T12:41:48;22.20;99.00
52267;DHT22;38223;50.940;4.034;2023-07-22T12:44:17;22.20;99.40
52267;DHT22;38223;50.940;4.034;2023-07-22T12:46:46;22.00;99.50
52267;DHT22;38223;50.940;4.034;2023-07-22T12:49:20;22.10;99.60
52267;DHT22;38223;50.940;4.034;2023-07-22T12:51:49;22.30;99.90
52267;DHT22;38223;50.940;4.034;2023-07-22T12:54:22;22.10;99.90
52267;DHT22;38223;50.940;4.034;2023-07-22T12:59:42;21.70;99.90
52267;DHT22;38223;50.940;4.034;2023-07-22T13:02:12;21.80;99.90
52267;DHT22;38223;50.940;4.034;2023-07-22T13:04:46;22.00;99.90
52267;DHT22;38223;50.940;4.034;2023-07-22T13:07:20;21.90;99.90
52267;DHT22;38223;50.940;4.034;2023-07-22T13:09:49;21.90;99.90
52267;DHT22;38223;50.940;4.034;2023-07-22T13:12:21;21.90;99.90
52267;DHT22;38223;50.940;4.034;2023-07-22T13:14:50;22.00;99.90
52267;DHT22;38223;50.940;4.034;2023-07-22T13:17:25;22.10;99.90
52267;DHT22;38223;50.940;4.034;2023-07-22T13:19:56;22.30;99.90
52267;DHT22;38223;50.940;4.034;2023-07-22T13:22:31;22.20;99.90
52267;DHT22;38223;50.940;4.034;2023-07-22T13:25:04;22.10;99.90
52267;DHT22;38223;50.940;4.034;2023-07-22T13:27:40;22.10;99.90
52267;DHT22;38223;50.940;4.034;2023-07-22T13:30:15;21.90;99.90
52267;DHT22;38223;50.940;4.034;2023-07-22T13:32:46;21.80;99.90
52267;DHT22;38223;50.940;4.034;2023-07-22T13:35:21;21.80;99.90
52267;DHT22;38223;50.940;4.034;2023-07-22T13:37:53;21.70;99.90
52267;DHT22;38223;50.940;4.034;2023-07-22T13:40:28;21.70;99.90
52267;DHT22;38223;50.940;4.034;2023-07-22T13:42:58;21.70;99.90
52267;DHT22;38223;50.940;4.034;2023-07-22T13:45:29;21.70;99.90
52267;DHT22;38223;50.940;4.034;2023-07-22T13:47:58;21.70;99.90
52267;DHT22;38223;50.940;4.034;2023-07-22T13:50:31;21.60;99.90
52267;DHT22;38223;50.940;4.034;2023-07-22T13:53:01;21.40;99.90
52267;DHT22;38223;50.940;4.034;2023-07-22T13:55:36;21.30;99.90
52267;DHT22;38223;50.940;4.034;2023-07-22T13:58:05;21.20;99.90
52267;DHT22;38223;50.940;4.034;2023-07-22T14:00:37;21.00;99.90
52267;DHT22;38223;50.940;4.034;2023-07-22T14:03:06;21.00;99.90
52267;DHT22;38223;50.940;4.034;2023-07-22T14:05:42;21.00;99.90
52267;DHT22;38223;50.940;4.034;2023-07-22T14:08:14;21.00;99.90
52267;DHT22;38223;50.940;4.034;2023-07-22T14:10:47;20.90;99.90
52267;DHT22;38223;50.940;4.034;2023-07-22T14:13:17;21.00;99.90
52267;DHT22;38223;50.940;4.034;2023-07-22T14:15:47;21.00;99.90
52267;DHT22;38223;50.940;4.034;2023-07-22T14:18:20;21.10;99.90
52267;DHT22;38223;50.940;4.034;2023-07-22T14:20:51;21.00;99.90
52267;DHT22;38223;50.940;4.034;2023-07-22T14:23:25;21.20;99.90
52267;DHT22;38223;50.940;4.034;2023-07-22T14:25:54;21.20;99.90
52267;DHT22;38223;50.940;4.034;2023-07-22T14:28:23;21.20;99.90
52267;DHT22;38223;50.940;4.034;2023-07-22T14:30:59;21.30;99.90
52267;DHT22;38223;50.940;4.034;2023-07-22T14:33:27;21.00;99.90
52267;DHT22;38223;50.940;4.034;2023-07-22T14:36:01;21.00;99.90
52267;DHT22;38223;50.940;4.034;2023-07-22T14:38:30;21.20;99.90
52267;DHT22;38223;50.940;4.034;2023-07-22T14:41:00;21.40;99.90
52267;DHT22;38223;50.940;4.034;2023-07-22T14:43:32;21.60;99.90
52267;DHT22;38223;50.940;4.034;2023-07-22T14:46:02;21.80;99.90
52267;DHT22;38223;50.940;4.034;2023-07-22T14:48:32;22.10;99.90
52267;DHT22;38223;50.940;4.034;2023-07-22T14:51:06;22.20;99.90
52267;DHT22;38223;50.940;4.034;2023-07-22T14:53:35;22.20;99.90
52267;DHT22;38223;50.940;4.034;2023-07-22T14:56:05;22.30;99.90
52267;DHT22;38223;50.940;4.034;2023-07-22T14:58:40;22.40;99.90
52267;DHT22;38223;50.940;4.034;2023-07-22T15:01:10;22.40;99.90
52267;DHT22;38223;50.940;4.034;2023-07-22T15:03:41;22.30;99.90
52267;DHT22;38223;50.940;4.034;2023-07-22T15:06:18;22.20;99.90
52267;DHT22;38223;50.940;4.034;2023-07-22T15:08:48;22.20;99.90
52267;DHT22;38223;50.940;4.034;2023-07-22T15:11:19;22.10;99.90
52267;DHT22;38223;50.940;4.034;2023-07-22T15:13:53;22.10;99.90
52267;DHT22;38223;50.940;4.034;2023-07-22T15:16:23;22.10;99.90
52267;DHT22;38223;50.940;4.034;2023-07-22T15:18:54;22.10;99.90
52267;DHT22;38223;50.940;4.034;2023-07-22T15:21:25;22.10;99.90
52267;DHT22;38223;50.940;4.034;2023-07-22T15:24:00;22.20;99.90
52267;DHT22;38223;50.940;4.034;2023-07-22T15:26:32;22.10;99.90
52267;DHT22;38223;50.940;4.034;2023-07-22T15:29:07;22.10;99.90
52267;DHT22;38223;50.940;4.034;2023-07-22T15:31:37;22.10;99.90
52267;DHT22;38223;50.940;4.034;2023-07-22T15:34:16;22.10;99.90
52267;DHT22;38223;50.940;4.034;2023-07-22T15:36:50;22.10;99.90
52267;DHT22;38223;50.940;4.034;2023-07-22T15:39:23;22.00;99.90
52267;DHT22;38223;50.940;4.034;2023-07-22T15:41:56;21.90;99.90
52267;DHT22;38223;50.940;4.034;2023-07-22T15:44:34;21.80;99.90
52267;DHT22;38223;50.940;4.034;2023-07-22T15:47:03;21.80;99.90
52267;DHT22;38223;50.940;4.034;2023-07-22T15:49:40;21.90;99.90
52267;DHT22;38223;50.940;4.034;2023-07-22T15:52:18;21.80;99.90
52267;DHT22;38223;50.940;4.034;2023-07-22T15:54:50;21.90;99.90
52267;DHT22;38223;50.940;4.034;2023-07-22T15:57:25;22.00;99.90
52267;DHT22;38223;50.940;4.034;2023-07-22T16:00:04;22.00;99.90
52267;DHT22;38223;50.940;4.034;2023-07-22T16:02:36;22.10;99.90
52267;DHT22;38223;50.940;4.034;2023-07-22T16:05:13;22.10;99.90
52267;DHT22;38223;50.940;4.034;2023-07-22T16:07:42;22.20;99.90
52267;DHT22;38223;50.940;4.034;2023-07-22T16:13:02;21.90;99.90
52267;DHT22;38223;50.940;4.034;2023-07-22T16:15:36;21.90;99.90
52267;DHT22;38223;50.940;4.034;2023-07-22T16:18:08;21.90;99.90
52267;DHT22;38223;50.940;4.034;2023-07-22T16:20:43;21.90;99.90
52267;DHT22;38223;50.940;4.034;2023-07-22T16:23:17;21.90;99.90
52267;DHT22;38223;50.940;4.034;2023-07-22T16:25:54;22.00;99.90